Time;durP1;ratioP1;P1;durP2;ratioP2;P2;SDS_P1;SDS_P2;PMS_P1;PMS_P2;Temp;Humidity;BMP_temperature;BMP_pressure;BME280_temperature;BME280_humidity;BME280_pressure;Samples;Min_cycle;Max_cycle;Signal;HPM_P1;HPM_P2
2022/11/07 00:02:04;;;;;;;10.75;6.13;;;;;;;6.56;97.39;98869.94;4903576;29;20059;-65
2022/11/07 00:04:49;;;;;;;12.95;6.05;;;;;;;6.60;98.11;98877.53;4900974;29;20049;-65
2022/11/07 00:07:34;;;;;;;9.65;5.75;;;;;;;6.58;97.68;98887.16;4900233;29;20044;-65
2022/11/07 00:10:18;;;;;;;9.00;5.78;;;;;;;6.60;97.50;98887.94;4902336;29;20055;-65
2022/11/07 00:13:03;;;;;;;13.15;6.60;;;;;;;6.51;97.79;98891.00;4903466;29;20198;-64
2022/11/07 00:15:47;;;;;;;10.68;6.22;;;;;;;6.52;97.79;98898.75;4902421;29;20053;-65
2022/11/07 00:18:32;;;;;;;11.38;5.57;;;;;;;6.53;97.06;98899.56;4898928;29;20444;-65
2022/11/07 00:21:17;;;;;;;9.50;5.15;;;;;;;6.34;98.48;98897.88;4905416;29;20190;-65
2022/11/07 00:24:01;;;;;;;12.45;6.20;;;;;;;6.34;98.71;98899.63;4898471;29;20143;-66
2022/11/07 00:26:46;;;;;;;11.70;6.65;;;;;;;6.38;98.62;98895.97;4901259;29;20064;-64
2022/11/07 00:29:31;;;;;;;9.32;5.55;;;;;;;6.25;98.75;98893.94;4902609;29;20048;-65
2022/11/07 00:32:15;;;;;;;12.65;6.07;;;;;;;5.94;100.00;98894.56;4908275;29;20836;-64
2022/11/07 00:35:00;;;;;;;10.48;5.82;;;;;;;6.20;100.00;98895.94;4901577;29;20100;-65
2022/11/07 00:37:45;;;;;;;11.07;5.88;;;;;;;6.20;100.00;98890.72;4902691;29;20073;-65
2022/11/07 00:40:29;;;;;;;10.80;5.57;;;;;;;6.32;99.79;98902.31;4905380;29;20659;-65
2022/11/07 00:43:14;;;;;;;13.90;5.72;;;;;;;6.31;100.00;98894.56;4897012;29;20583;-65
2022/11/07 00:46:01;;;;;;;13.85;5.63;;;;;;;6.29;100.00;98897.25;4903906;29;20056;-65
2022/11/07 00:48:46;;;;;;;9.18;5.55;;;;;;;6.34;100.00;98904.84;4911344;29;20053;-65
2022/11/07 00:51:31;;;;;;;10.05;5.38;;;;;;;6.32;99.95;98894.50;4903623;29;20136;-65
2022/11/07 00:54:16;;;;;;;14.55;5.97;;;;;;;6.18;100.00;98899.53;4900313;29;20075;-65
2022/11/07 00:57:00;;;;;;;10.65;5.75;;;;;;;6.28;100.00;98898.19;4904076;29;20136;-65
2022/11/07 00:59:45;;;;;;;10.95;5.78;;;;;;;6.26;100.00;98885.25;4900797;29;20052;-65
2022/11/07 01:02:30;;;;;;;14.45;6.22;;;;;;;6.31;99.95;98895.44;4900313;29;20155;-65
2022/11/07 01:05:14;;;;;;;11.15;6.22;;;;;;;6.35;100.00;98899.56;4903093;29;20051;-65
2022/11/07 01:07:59;;;;;;;15.15;6.03;;;;;;;6.29;100.00;98902.47;4901846;29;20052;-65
2022/11/07 01:10:43;;;;;;;11.45;6.47;;;;;;;6.44;100.00;98907.84;4900314;29;20545;-65
2022/11/07 01:13:27;;;;;;;11.85;6.22;;;;;;;6.40;100.00;98907.97;4899421;29;20041;-65
2022/11/07 01:16:12;;;;;;;14.00;6.53;;;;;;;6.42;100.00;98907.91;4901123;29;20139;-65
2022/11/07 01:18:57;;;;;;;16.42;6.88;;;;;;;6.37;100.00;98912.50;4898686;29;20068;-65
2022/11/07 01:21:41;;;;;;;13.68;6.85;;;;;;;6.29;100.00;98905.06;4900449;29;20048;-65
2022/11/07 01:24:26;;;;;;;17.80;6.35;;;;;;;6.36;100.00;98903.00;4900639;29;20049;-65
2022/11/07 01:27:10;;;;;;;13.57;6.60;;;;;;;6.21;100.00;98901.97;4900670;29;20060;-65
2022/11/07 01:29:55;;;;;;;11.10;5.78;;;;;;;6.22;100.00;98895.88;4908219;29;20130;-66
2022/11/07 01:32:39;;;;;;;14.23;7.07;;;;;;;6.30;100.00;98905.91;4900539;29;20545;-64
2022/11/07 01:35:24;;;;;;;12.73;6.88;;;;;;;6.22;100.00;98901.91;4899246;29;20067;-65
2022/11/07 01:38:08;;;;;;;14.13;7.05;;;;;;;6.28;100.00;98896.41;4898727;29;20055;-65
2022/11/07 01:44:07;;;;;;;14.15;7.10;;;;;;;6.24;100.00;98910.50;4902141;29;20446;-65
2022/11/07 01:46:56;;;;;;;13.57;6.63;;;;;;;6.27;100.00;98906.88;4898250;29;20049;-64
2022/11/07 01:49:42;;;;;;;11.80;7.38;;;;;;;6.34;100.00;98907.44;4900556;29;20049;-65
2022/11/07 01:52:40;;;;;;;12.02;6.60;;;;;;;6.33;100.00;98898.81;4910121;29;20040;-64
2022/11/07 01:55:32;;;;;;;13.60;7.28;;;;;;;6.54;100.00;98909.06;4900129;29;20631;-65
2022/11/07 01:58:17;;;;;;;13.32;6.82;;;;;;;6.51;100.00;98891.00;4915872;29;20043;-64
2022/11/07 02:01:03;;;;;;;12.95;6.40;;;;;;;6.58;100.00;98907.13;4901953;29;20139;-65
2022/11/07 02:03:49;;;;;;;16.45;7.40;;;;;;;6.60;100.00;98889.69;4902875;29;20414;-65
2022/11/07 02:06:47;;;;;;;17.30;8.02;;;;;;;6.06;100.00;98895.75;4896565;29;20132;-65
2022/11/07 02:09:32;;;;;;;13.00;7.18;;;;;;;5.92;100.00;98887.66;4901886;29;20048;-65
2022/11/07 02:12:17;;;;;;;14.15;8.10;;;;;;;6.09;100.00;98895.63;4900582;29;20059;-66
2022/11/07 02:15:03;;;;;;;14.00;7.13;;;;;;;6.10;100.00;98897.31;4898483;29;20469;-65
2022/11/07 02:17:48;;;;;;;13.13;7.30;;;;;;;6.25;100.00;98900.94;4897856;29;20056;-65
2022/11/07 02:20:33;;;;;;;12.27;7.55;;;;;;;6.33;100.00;98909.22;4902691;29;20057;-65
2022/11/07 02:23:38;;;;;;;12.15;7.03;;;;;;;6.38;100.00;98903.78;4901493;29;20055;-65
2022/11/07 02:26:25;;;;;;;13.20;6.85;;;;;;;6.37;100.00;98902.06;4898048;29;20052;-65
2022/11/07 02:29:11;;;;;;;14.20;7.38;;;;;;;6.27;100.00;98907.75;4898230;29;20040;-64
2022/11/07 02:32:08;;;;;;;13.98;7.78;;;;;;;6.04;100.00;98903.59;4907040;29;20056;-65
2022/11/07 02:35:06;;;;;;;11.75;6.97;;;;;;;6.36;100.00;98916.03;4898221;29;20084;-66
2022/11/07 02:37:51;;;;;;;15.55;7.47;;;;;;;6.30;100.00;98917.16;4902377;29;20048;-64
2022/11/07 02:40:36;;;;;;;15.00;8.10;;;;;;;6.47;100.00;98918.09;4897845;29;21212;-65
2022/11/07 02:43:25;;;;;;;13.65;7.43;;;;;;;6.50;100.00;98920.53;4901889;29;20071;-66
2022/11/07 02:46:12;;;;;;;15.15;7.75;;;;;;;6.65;99.19;98906.78;4898920;29;20465;-65
2022/11/07 02:48:59;;;;;;;15.18;7.15;;;;;;;6.49;100.00;98911.91;4898839;29;20044;-65
2022/11/07 02:51:44;;;;;;;12.32;6.82;;;;;;;6.51;100.00;98914.44;4896710;29;20840;-65
2022/11/07 02:54:29;;;;;;;12.75;7.53;;;;;;;6.57;100.00;98908.06;4917030;29;20041;-65
2022/11/07 02:57:13;;;;;;;14.90;8.07;;;;;;;6.35;100.00;98903.94;4896541;29;20048;-65
2022/11/07 02:59:57;;;;;;;19.63;8.73;;;;;;;5.85;100.00;98903.63;4902010;29;20048;-65
2022/11/07 03:02:45;;;;;;;16.10;8.23;;;;;;;5.90;100.00;98909.47;4902767;29;20167;-64
2022/11/07 03:05:30;;;;;;;18.20;8.48;;;;;;;6.02;100.00;98916.69;4902794;29;20074;-66
2022/11/07 03:08:15;;;;;;;17.17;8.70;;;;;;;5.92;100.00;98931.88;4897633;29;20115;-65
2022/11/07 03:11:00;;;;;;;14.25;8.30;;;;;;;6.53;100.00;98934.25;4899318;29;20048;-66
2022/11/07 03:13:46;;;;;;;15.23;8.05;;;;;;;6.63;100.00;98936.41;4896965;29;20544;-65
2022/11/07 03:16:31;;;;;;;21.10;8.90;;;;;;;6.47;100.00;98944.97;4903271;29;20056;-66
2022/11/07 03:19:16;;;;;;;17.70;8.13;;;;;;;6.77;99.76;98946.16;4900218;29;20505;-66
2022/11/07 03:22:00;;;;;;;15.63;7.82;;;;;;;6.63;98.95;98955.47;4900367;29;20159;-65
2022/11/07 03:24:45;;;;;;;17.15;7.95;;;;;;;6.55;99.36;98952.41;4901161;29;20073;-66
2022/11/07 03:27:29;;;;;;;12.85;7.60;;;;;;;6.76;99.36;98947.03;4899240;29;20060;-66
2022/11/07 03:30:15;;;;;;;16.00;7.88;;;;;;;6.92;98.22;98943.69;4902395;29;20060;-65
2022/11/07 03:32:59;;;;;;;13.93;7.30;;;;;;;6.96;97.29;98948.66;4898085;29;20448;-65
2022/11/07 03:35:44;;;;;;;13.30;7.32;;;;;;;6.82;98.61;98961.53;4896363;29;20087;-65
2022/11/07 03:38:29;;;;;;;13.73;7.57;;;;;;;6.53;99.91;98964.63;4896236;29;20111;-65
2022/11/07 03:41:16;;;;;;;13.57;7.15;;;;;;;6.72;99.64;98963.75;4896625;29;20136;-65
2022/11/07 03:44:00;;;;;;;14.88;7.97;;;;;;;6.69;99.85;98963.91;4902937;29;20049;-65
2022/11/07 03:46:45;;;;;;;15.43;8.13;;;;;;;6.68;100.00;98967.41;4900906;29;20056;-66
2022/11/07 03:49:30;;;;;;;16.67;8.50;;;;;;;6.61;100.00;98969.50;4902009;29;20063;-65
2022/11/07 03:52:14;;;;;;;15.75;8.50;;;;;;;6.78;99.34;98974.72;4900675;29;20068;-65
2022/11/07 03:54:59;;;;;;;17.33;8.63;;;;;;;6.79;100.00;98972.94;4898858;29;20067;-66
2022/11/07 03:57:45;;;;;;;21.45;8.57;;;;;;;6.77;100.00;98978.22;4900747;29;20060;-65
2022/11/07 04:00:29;;;;;;;19.55;8.57;;;;;;;6.94;98.92;98978.28;4899145;29;20059;-65
2022/11/07 04:03:14;;;;;;;18.20;8.43;;;;;;;6.97;97.78;98983.38;4902047;29;20139;-65
2022/11/07 04:05:58;;;;;;;14.63;8.40;;;;;;;6.88;98.69;98974.25;4901972;29;20044;-66
2022/11/07 04:08:43;;;;;;;17.85;8.77;;;;;;;6.97;98.02;98984.19;4898435;29;20048;-64
2022/11/07 04:17:34;;;;;;;14.05;8.10;;;;;;;6.49;100.00;99005.63;4900099;29;20378;-65
2022/11/07 04:20:19;;;;;;;16.83;8.05;;;;;;;6.24;100.00;99003.31;4898600;29;20052;-65
2022/11/07 04:23:03;;;;;;;15.05;7.45;;;;;;;6.60;100.00;99006.84;4900581;29;20066;-65
2022/11/07 04:28:51;;;;;;;15.50;8.63;;;;;;;6.85;99.92;99009.09;4904025;29;20058;-65
2022/11/07 04:31:35;;;;;;;16.98;8.18;;;;;;;6.61;100.00;99011.97;4902165;29;20041;-66
2022/11/07 04:34:20;;;;;;;15.60;8.15;;;;;;;6.68;100.00;99012.53;4900930;29;20048;-65
2022/11/07 04:37:05;;;;;;;9.48;4.60;;;;;;;6.59;98.57;99016.44;4902426;29;20040;-65
2022/11/07 04:39:49;;;;;;;9.60;4.75;;;;;;;6.62;95.23;99018.88;4902807;29;20056;-65
2022/11/07 04:42:34;;;;;;;6.35;3.47;;;;;;;6.60;93.96;99009.44;4906514;29;20135;-65
2022/11/07 04:45:18;;;;;;;10.10;3.70;;;;;;;6.67;91.52;99005.63;4894563;29;20095;-65
2022/11/07 04:48:04;;;;;;;4.70;2.90;;;;;;;6.72;90.91;99015.81;4902313;29;20043;-66
2022/11/07 04:50:49;;;;;;;6.45;3.13;;;;;;;6.81;89.93;99007.56;4903392;29;20044;-65
2022/11/07 04:53:33;;;;;;;4.32;2.58;;;;;;;6.86;88.88;99017.75;4904297;29;20072;-65
2022/11/07 04:56:18;;;;;;;5.05;2.63;;;;;;;6.92;88.15;99017.44;4904141;29;20131;-65
2022/11/07 04:59:03;;;;;;;4.85;3.10;;;;;;;6.94;87.73;99015.59;4904068;29;20095;-65
2022/11/07 05:01:48;;;;;;;4.47;2.53;;;;;;;7.03;87.29;99016.94;4902438;29;20058;-65
2022/11/07 05:04:32;;;;;;;4.43;2.42;;;;;;;7.06;87.06;99021.13;4913966;29;20076;-67
2022/11/07 05:07:18;;;;;;;3.20;2.17;;;;;;;7.24;86.70;99022.81;4900453;29;20175;-65
2022/11/07 05:10:05;;;;;;;5.82;2.28;;;;;;;7.24;85.51;99021.97;4899912;29;20057;-66
2022/11/07 05:12:50;;;;;;;3.58;1.92;;;;;;;7.27;84.69;99021.81;4902755;29;20573;-65
2022/11/07 05:15:35;;;;;;;3.67;2.10;;;;;;;7.52;86.70;99020.56;4903254;29;20041;-66
2022/11/07 05:18:23;;;;;;;4.07;2.20;;;;;;;7.49;83.70;99018.94;4899710;29;20052;-65
2022/11/07 05:21:08;;;;;;;3.88;2.30;;;;;;;7.42;83.81;99028.00;4906128;29;20045;-65
2022/11/07 05:23:53;;;;;;;3.92;2.08;;;;;;;7.45;83.89;99032.22;4905258;29;20036;-64
2022/11/07 05:26:38;;;;;;;3.75;2.17;;;;;;;7.41;83.92;99035.91;4900988;29;20056;-66
2022/11/07 05:29:22;;;;;;;4.82;2.05;;;;;;;7.44;83.86;99035.75;4902066;29;20084;-65
2022/11/07 05:32:06;;;;;;;4.63;2.17;;;;;;;7.47;84.23;99038.19;4900173;29;20631;-65
2022/11/07 05:34:51;;;;;;;3.85;1.95;;;;;;;7.50;83.80;99046.72;4905316;29;20056;-65
2022/11/07 05:37:36;;;;;;;3.42;1.65;;;;;;;7.56;83.68;99048.16;4901479;29;20962;-65
2022/11/07 05:40:21;;;;;;;4.05;2.17;;;;;;;7.56;83.27;99044.69;4903315;29;20053;-65
2022/11/07 05:43:08;;;;;;;3.85;2.20;;;;;;;7.59;83.32;99044.56;4903970;29;20123;-64
2022/11/07 05:45:58;;;;;;;3.90;2.10;;;;;;;7.65;83.65;99054.66;4899881;29;20108;-66
2022/11/07 05:48:43;;;;;;;2.83;1.70;;;;;;;7.71;83.69;99062.16;4900710;29;20063;-65
2022/11/07 05:51:27;;;;;;;3.28;1.70;;;;;;;7.90;84.70;99063.78;4902706;29;20052;-66
2022/11/07 05:54:12;;;;;;;4.82;2.10;;;;;;;8.00;85.15;99065.00;4901740;29;20044;-65
2022/11/07 05:56:57;;;;;;;3.13;1.80;;;;;;;7.76;87.69;99068.00;4898924;29;20059;-65
2022/11/07 05:59:42;;;;;;;3.90;1.90;;;;;;;7.68;90.08;99074.50;4898052;29;20064;-66
2022/11/07 06:02:27;;;;;;;2.90;1.80;;;;;;;7.61;92.41;99081.81;4903181;29;20310;-66
2022/11/07 06:05:12;;;;;;;4.65;1.63;;;;;;;7.55;95.99;99077.75;4889140;29;20045;-66
2022/11/07 06:07:57;;;;;;;3.78;1.60;;;;;;;7.53;100.00;99087.41;4903142;29;20131;-65
2022/11/07 06:10:42;;;;;;;2.83;1.80;;;;;;;7.48;100.00;99087.66;4903666;29;20049;-67
2022/11/07 06:13:27;;;;;;;2.42;1.30;;;;;;;7.41;100.00;99093.25;4902972;29;20041;-65
2022/11/07 06:16:12;;;;;;;2.55;1.70;;;;;;;7.35;100.00;99103.06;4902557;29;20044;-66
2022/11/07 06:18:57;;;;;;;2.45;1.75;;;;;;;7.23;100.00;99106.28;4900122;29;20128;-66
2022/11/07 06:21:41;;;;;;;3.00;1.65;;;;;;;7.20;100.00;99107.28;4900440;29;20099;-66
2022/11/07 06:24:26;;;;;;;2.53;1.58;;;;;;;7.26;100.00;99103.53;4902378;29;20071;-66
2022/11/07 06:27:11;;;;;;;3.30;1.42;;;;;;;7.24;100.00;99110.56;4903168;29;20044;-66
2022/11/07 06:29:55;;;;;;;2.35;1.45;;;;;;;7.22;100.00;99112.41;4900838;29;20056;-66
2022/11/07 06:32:43;;;;;;;2.40;1.52;;;;;;;7.29;100.00;99110.34;4904988;29;20711;-66
2022/11/07 06:35:29;;;;;;;2.53;1.42;;;;;;;7.33;100.00;99120.53;4903372;29;20048;-66
2022/11/07 06:38:14;;;;;;;2.17;1.50;;;;;;;7.38;100.00;99125.53;4898861;29;20139;-67
2022/11/07 06:41:10;;;;;;;3.55;1.50;;;;;;;7.47;100.00;99126.84;4898260;29;20433;-66
2022/11/07 06:43:54;;;;;;;2.47;1.30;;;;;;;7.49;100.00;99128.44;4900602;29;20048;-65
2022/11/07 06:46:39;;;;;;;3.75;1.48;;;;;;;7.52;100.00;99133.50;4900892;29;20072;-65
2022/11/07 06:49:24;;;;;;;2.80;1.38;;;;;;;7.66;100.00;99126.75;4899713;29;20080;-65
2022/11/07 06:52:08;;;;;;;2.38;1.42;;;;;;;7.63;100.00;99134.72;4901778;29;20044;-65
2022/11/07 06:54:53;;;;;;;2.75;1.45;;;;;;;7.82;100.00;99128.56;4900274;29;20052;-66
2022/11/07 06:57:37;;;;;;;2.63;1.55;;;;;;;7.93;100.00;99135.84;4901434;29;20852;-66
2022/11/07 07:00:22;;;;;;;3.42;1.80;;;;;;;7.90;100.00;99131.63;4902132;29;20048;-65
2022/11/07 07:03:07;;;;;;;4.05;1.70;;;;;;;8.11;100.00;99132.28;4901258;29;20052;-65
2022/11/07 07:05:51;;;;;;;7.13;2.05;;;;;;;8.37;100.00;99140.50;4900496;29;20500;-66
2022/11/07 07:08:36;;;;;;;3.30;2.20;;;;;;;8.62;100.00;99141.81;4901008;29;20052;-66
2022/11/07 07:11:21;;;;;;;5.03;2.63;;;;;;;8.38;100.00;99138.72;4902517;29;20131;-66
2022/11/07 07:14:05;;;;;;;6.78;2.85;;;;;;;8.17;100.00;99143.31;4900309;29;20422;-66
2022/11/07 07:16:50;;;;;;;4.53;2.75;;;;;;;8.30;100.00;99146.97;4912624;29;20419;-66
2022/11/07 07:19:35;;;;;;;3.83;2.67;;;;;;;8.36;100.00;99141.44;4897587;29;20054;-66
2022/11/07 07:22:20;;;;;;;5.43;2.88;;;;;;;8.33;100.00;99144.19;4898482;29;20059;-66
2022/11/07 07:25:05;;;;;;;4.88;2.97;;;;;;;8.31;100.00;99145.19;4899692;29;20309;-66
2022/11/07 07:27:49;;;;;;;4.45;3.05;;;;;;;8.24;100.00;99142.91;4899102;29;20076;-65
2022/11/07 07:30:34;;;;;;;4.35;2.80;;;;;;;8.23;100.00;99140.38;4899855;29;20139;-66
2022/11/07 07:33:19;;;;;;;5.05;2.63;;;;;;;8.36;100.00;99144.03;4900192;29;20100;-65
2022/11/07 07:36:05;;;;;;;4.55;2.83;;;;;;;8.52;100.00;99137.16;4910982;29;20078;-66
2022/11/07 07:38:50;;;;;;;6.20;3.55;;;;;;;8.30;100.00;99140.91;4899218;29;20079;-66
2022/11/07 07:41:35;;;;;;;6.95;3.97;;;;;;;8.23;100.00;99143.84;4897388;29;20063;-66
2022/11/07 07:44:19;;;;;;;7.95;4.97;;;;;;;8.11;100.00;99150.53;4903245;29;20057;-66
2022/11/07 07:47:04;;;;;;;7.38;4.93;;;;;;;8.21;100.00;99140.47;4903524;29;20520;-65
2022/11/07 07:49:49;;;;;;;7.20;4.47;;;;;;;8.15;100.00;99146.00;4899206;29;20049;-66
2022/11/07 07:52:33;;;;;;;6.60;4.47;;;;;;;8.27;100.00;99149.75;4901312;29;20094;-65
2022/11/07 07:55:18;;;;;;;6.40;4.38;;;;;;;8.21;100.00;99142.25;4900032;29;20056;-66
2022/11/07 07:58:03;;;;;;;8.48;4.53;;;;;;;8.27;100.00;99147.16;4898800;29;20121;-65
2022/11/07 08:00:50;;;;;;;6.22;3.92;;;;;;;8.34;100.00;99150.28;4902224;29;20385;-66
2022/11/07 08:03:36;;;;;;;5.95;3.80;;;;;;;8.36;100.00;99151.88;4904011;29;20155;-66
2022/11/07 08:06:21;;;;;;;6.65;3.45;;;;;;;8.39;100.00;99161.28;4905072;29;20098;-65
2022/11/07 08:09:05;;;;;;;5.65;3.50;;;;;;;8.40;100.00;99160.38;4906193;29;20077;-66
2022/11/07 08:11:50;;;;;;;4.78;3.22;;;;;;;8.38;100.00;99164.84;4901994;29;20151;-66
2022/11/07 08:14:34;;;;;;;4.95;3.42;;;;;;;8.42;100.00;99158.50;4904958;29;20056;-65
2022/11/07 08:17:19;;;;;;;6.05;3.22;;;;;;;8.59;100.00;99157.66;4902373;29;20079;-66
2022/11/07 08:20:05;;;;;;;5.40;3.22;;;;;;;8.59;100.00;99156.81;4902135;29;20060;-66
2022/11/07 08:22:49;;;;;;;9.70;4.72;;;;;;;8.90;100.00;99168.19;4904629;29;20067;-66
2022/11/07 08:25:35;;;;;;;9.18;5.88;;;;;;;8.99;100.00;99172.91;4904774;29;20056;-67
2022/11/07 08:28:21;;;;;;;6.00;3.20;;;;;;;8.97;100.00;99172.16;4900023;29;20135;-65
2022/11/07 08:31:08;;;;;;;5.18;2.78;;;;;;;8.91;100.00;99164.66;4903961;29;20040;-65
2022/11/07 08:33:56;;;;;;;5.95;2.90;;;;;;;8.83;100.00;99172.09;4901490;29;20496;-65
2022/11/07 08:36:40;;;;;;;5.38;3.42;;;;;;;9.06;100.00;99169.94;4900521;29;20044;-65
2022/11/07 08:39:24;;;;;;;7.55;4.45;;;;;;;8.74;100.00;99176.88;4900117;29;20568;-65
2022/11/07 08:42:09;;;;;;;8.48;4.25;;;;;;;8.69;100.00;99172.81;4901190;29;20045;-65
2022/11/07 08:44:54;;;;;;;8.00;4.30;;;;;;;8.55;100.00;99182.25;4904944;29;20048;-65
2022/11/07 08:47:38;;;;;;;8.77;5.53;;;;;;;8.77;100.00;99180.25;4903630;29;20045;-66
2022/11/07 08:50:23;;;;;;;9.85;4.65;;;;;;;8.67;100.00;99180.75;4902664;29;20480;-65
2022/11/07 08:53:10;;;;;;;6.53;4.63;;;;;;;9.03;100.00;99172.72;4900597;29;20056;-66
2022/11/07 08:56:06;;;;;;;7.80;4.40;;;;;;;9.03;100.00;99184.03;4902369;29;20532;-66
2022/11/07 08:58:50;;;;;;;8.90;4.78;;;;;;;9.03;100.00;99184.03;4900481;29;20621;-65
2022/11/07 09:01:35;;;;;;;9.27;4.68;;;;;;;9.02;100.00;99184.97;4905673;29;20052;-65
2022/11/07 09:04:19;;;;;;;9.50;4.93;;;;;;;9.25;100.00;99188.06;4905409;29;20067;-66
2022/11/07 09:07:04;;;;;;;13.07;6.75;;;;;;;9.13;100.00;99189.59;4886772;29;20081;-65
2022/11/07 09:09:49;;;;;;;11.93;6.32;;;;;;;9.14;100.00;99199.13;4900231;29;20559;-65
2022/11/07 09:12:33;;;;;;;13.50;6.82;;;;;;;9.16;100.00;99197.25;4905232;29;20067;-66
2022/11/07 09:15:18;;;;;;;10.77;5.90;;;;;;;8.79;100.00;99205.38;4900102;29;20099;-66
2022/11/07 09:18:04;;;;;;;8.23;5.10;;;;;;;8.61;100.00;99201.97;4904348;29;20075;-66
2022/11/07 09:20:49;;;;;;;10.23;5.13;;;;;;;8.49;100.00;99200.81;4902760;29;20114;-66
2022/11/07 09:23:33;;;;;;;8.70;5.15;;;;;;;8.22;100.00;99214.41;4901067;29;20052;-66
2022/11/07 09:26:18;;;;;;;8.85;4.90;;;;;;;8.63;100.00;99206.19;4901646;29;20044;-66
2022/11/07 09:29:03;;;;;;;6.55;4.30;;;;;;;8.83;100.00;99216.50;4903882;29;20048;-66
2022/11/07 09:31:47;;;;;;;8.85;5.10;;;;;;;8.78;100.00;99210.69;4900735;29;20378;-65
2022/11/07 09:34:32;;;;;;;9.85;5.88;;;;;;;8.64;100.00;99214.88;4901025;29;20116;-66
2022/11/07 09:37:17;;;;;;;14.02;5.70;;;;;;;8.91;100.00;99216.09;4903740;29;20056;-65
2022/11/07 09:40:02;;;;;;;8.85;5.13;;;;;;;8.78;100.00;99216.72;4900980;29;20040;-65
2022/11/07 09:43:03;;;;;;;7.53;4.57;;;;;;;8.59;100.00;99222.09;4903801;29;20052;-66
2022/11/07 09:46:09;;;;;;;8.23;4.30;;;;;;;8.90;100.00;99228.28;4898836;29;20037;-65
2022/11/07 09:49:14;;;;;;;7.85;4.93;;;;;;;8.64;100.00;99222.69;4900434;29;20394;-66
2022/11/07 09:52:07;;;;;;;7.68;4.82;;;;;;;8.70;100.00;99224.16;4899506;29;20056;-66
2022/11/07 09:54:58;;;;;;;6.75;4.38;;;;;;;9.17;100.00;99222.47;4902916;29;20051;-65
2022/11/07 09:57:42;;;;;;;8.40;4.63;;;;;;;9.14;100.00;99217.41;4904869;29;20458;-66
2022/11/07 10:00:31;;;;;;;7.20;4.22;;;;;;;9.23;100.00;99223.91;4898838;29;20048;-65
2022/11/07 10:03:17;;;;;;;10.18;5.20;;;;;;;9.45;100.00;99215.69;4912835;29;20419;-65
2022/11/07 10:06:25;;;;;;;9.80;4.32;;;;;;;9.65;100.00;99213.72;4905625;29;20048;-66
2022/11/07 10:09:22;;;;;;;9.20;4.82;;;;;;;9.71;100.00;99220.38;4902980;29;20071;-66
2022/11/07 10:12:24;;;;;;;8.77;4.88;;;;;;;9.77;100.00;99213.94;4892507;29;20381;-65
2022/11/07 10:15:24;;;;;;;9.23;4.45;;;;;;;9.70;100.00;99219.53;4900410;29;20060;-66
2022/11/07 10:18:37;;;;;;;8.95;4.78;;;;;;;9.76;100.00;99212.25;4899293;29;20520;-68
2022/11/07 10:21:58;;;;;;;7.18;4.70;;;;;;;9.59;100.00;99214.94;4899663;29;20041;-65
2022/11/07 10:24:46;;;;;;;6.90;4.68;;;;;;;9.52;100.00;99216.19;4898905;29;20036;-66
2022/11/07 10:27:31;;;;;;;9.07;4.65;;;;;;;9.59;100.00;99214.94;4900029;29;20052;-66
2022/11/07 10:30:18;;;;;;;11.63;5.68;;;;;;;9.85;100.00;99220.41;4902473;29;20056;-66
2022/11/07 10:33:44;;;;;;;8.82;4.60;;;;;;;9.94;100.00;99219.03;4898344;29;20103;-66
2022/11/07 10:36:31;;;;;;;10.13;5.75;;;;;;;9.88;100.00;99218.53;4859853;29;20056;-66
2022/11/07 10:39:17;;;;;;;7.78;4.25;;;;;;;10.32;99.69;99209.81;4862178;29;20213;-66
2022/11/07 10:42:11;;;;;;;5.10;3.50;;;;;;;10.46;96.88;99203.78;4860142;29;20049;-66
2022/11/07 10:44:57;;;;;;;6.13;3.55;;;;;;;11.85;91.87;99196.78;4856084;29;20053;-65
2022/11/07 10:47:53;;;;;;;5.28;3.53;;;;;;;13.13;83.14;99200.34;4859855;29;20049;-65
2022/11/07 10:50:37;;;;;;;6.57;3.10;;;;;;;13.27;80.34;99192.28;4862496;29;20451;-66
2022/11/07 10:53:24;;;;;;;5.68;3.30;;;;;;;13.80;79.48;99195.50;4857392;29;20061;-65
2022/11/07 10:56:11;;;;;;;4.15;3.08;;;;;;;14.71;76.11;99191.25;4859228;29;20057;-65
2022/11/07 10:58:56;;;;;;;5.60;3.53;;;;;;;15.61;71.90;99192.00;4854670;29;20080;-66
2022/11/07 11:01:52;;;;;;;6.05;3.28;;;;;;;16.12;68.31;99200.13;4863408;29;20140;-65
2022/11/07 11:04:48;;;;;;;7.88;3.67;;;;;;;16.45;66.12;99185.97;4859461;29;20096;-65
2022/11/07 11:07:35;;;;;;;5.38;2.55;;;;;;;16.67;64.69;99189.38;4863015;29;20390;-65
2022/11/07 11:10:24;;;;;;;4.15;2.35;;;;;;;17.04;62.40;99186.09;4864709;29;20046;-65
2022/11/07 11:13:28;;;;;;;5.05;2.58;;;;;;;16.84;63.30;99175.47;4901875;29;20120;-65
2022/11/07 11:16:13;;;;;;;4.25;2.28;;;;;;;17.40;61.32;99166.25;4899917;29;20044;-65
2022/11/07 11:19:00;;;;;;;5.60;3.00;;;;;;;18.18;58.51;99173.25;4901376;29;20147;-66
2022/11/07 11:21:48;;;;;;;4.97;2.70;;;;;;;18.11;58.13;99172.13;4898770;29;20078;-66
2022/11/07 11:24:38;;;;;;;5.40;2.55;;;;;;;18.11;59.90;99177.44;4915759;29;20048;-65
2022/11/07 11:27:28;;;;;;;6.50;2.92;;;;;;;19.10;55.42;99171.69;4899326;29;20350;-66
2022/11/07 11:30:18;;;;;;;4.35;2.33;;;;;;;18.93;54.38;99170.66;4900653;29;20052;-66
2022/11/07 11:33:07;;;;;;;5.32;2.75;;;;;;;18.38;58.01;99173.16;4897954;29;20137;-66
2022/11/07 11:36:01;;;;;;;5.50;2.40;;;;;;;17.95;58.15;99170.09;4890021;29;20064;-66
2022/11/07 11:38:53;;;;;;;4.05;2.45;;;;;;;18.63;55.92;99164.69;4901483;29;20100;-67
2022/11/07 11:41:52;;;;;;;3.90;2.55;;;;;;;18.32;56.26;99155.19;4906799;29;20052;-66
2022/11/07 11:44:43;;;;;;;2.80;2.05;;;;;;;18.83;55.79;99162.75;4906344;29;20070;-66
2022/11/07 11:47:35;;;;;;;2.67;2.03;;;;;;;19.35;52.03;99152.47;4901806;29;20084;-66
2022/11/07 11:50:30;;;;;;;4.13;2.00;;;;;;;19.65;51.94;99169.81;4903518;29;20121;-66
2022/11/07 11:53:18;;;;;;;3.55;1.65;;;;;;;19.75;50.95;99161.75;4901464;29;20544;-66
2022/11/07 11:56:05;;;;;;;2.60;1.77;;;;;;;19.62;51.93;99148.88;4904067;29;20385;-66
2022/11/07 11:59:11;;;;;;;4.28;2.25;;;;;;;19.80;51.01;99150.66;4901428;29;20041;-66
2022/11/07 12:02:31;;;;;;;5.10;2.22;;;;;;;19.99;51.06;99135.50;4905541;29;20164;-66
2022/11/07 12:05:33;;;;;;;5.95;2.47;;;;;;;19.98;49.71;99144.44;4905522;29;20051;-66
2022/11/07 12:08:41;;;;;;;4.88;2.15;;;;;;;20.25;50.29;99137.31;4908309;29;20056;-67
2022/11/07 12:11:47;;;;;;;2.85;1.45;;;;;;;20.75;48.13;99132.16;4902259;29;20185;-67
2022/11/07 12:14:41;;;;;;;2.60;1.50;;;;;;;20.72;49.10;99135.16;4900388;29;20040;-66
2022/11/07 12:17:39;;;;;;;4.22;1.60;;;;;;;20.12;49.16;99133.28;4901537;29;20126;-66
2022/11/07 12:20:31;;;;;;;4.43;1.90;;;;;;;20.47;48.94;99116.44;4904806;29;20041;-67
2022/11/07 12:23:25;;;;;;;4.43;1.90;;;;;;;20.75;48.35;99119.69;4902874;29;20110;-66
2022/11/07 12:26:33;;;;;;;4.38;2.00;;;;;;;20.25;48.61;99116.88;4903003;29;20044;-67
2022/11/07 12:29:17;;;;;;;3.45;1.70;;;;;;;20.51;48.37;99121.31;4899124;29;20490;-66
2022/11/07 12:32:07;;;;;;;3.47;1.58;;;;;;;20.36;48.68;99122.88;4899324;29;20107;-66
2022/11/07 12:34:51;;;;;;;4.45;1.65;;;;;;;20.22;48.61;99133.13;4901406;29;20578;-66
2022/11/07 12:38:06;;;;;;;3.75;1.90;;;;;;;20.17;49.32;99132.81;4900192;29;20060;-66
2022/11/07 12:41:02;;;;;;;3.53;2.20;;;;;;;20.10;49.54;99137.91;4901217;29;20107;-66
2022/11/07 12:44:03;;;;;;;3.10;1.48;;;;;;;20.07;49.98;99130.25;4899030;29;20037;-67
2022/11/07 12:46:52;;;;;;;2.33;1.50;;;;;;;20.24;49.37;99125.03;4901038;29;20104;-67
2022/11/07 12:49:47;;;;;;;2.67;1.42;;;;;;;20.50;48.23;99124.94;4899353;29;20468;-67
2022/11/07 12:53:04;;;;;;;2.42;1.15;;;;;;;20.48;48.18;99118.13;4899789;29;20049;-67
2022/11/07 12:55:56;;;;;;;3.67;1.70;;;;;;;20.46;48.25;99122.75;4903872;29;20058;-66
2022/11/07 12:58:42;;;;;;;3.38;1.63;;;;;;;21.19;47.13;99123.09;4903396;29;20052;-66
2022/11/07 13:01:35;;;;;;;2.38;1.60;;;;;;;20.71;47.88;99125.50;4899625;29;20052;-66
2022/11/07 13:04:40;;;;;;;2.40;1.40;;;;;;;21.07;46.84;99121.78;4904132;29;20469;-65
2022/11/07 13:07:40;;;;;;;4.68;1.33;;;;;;;20.51;47.96;99136.41;4899668;29;20107;-66
2022/11/07 13:11:09;;;;;;;3.35;1.35;;;;;;;20.84;47.91;99131.16;4901670;29;20501;-66
2022/11/07 13:14:21;;;;;;;3.17;1.92;;;;;;;20.06;50.13;99124.09;4901544;29;20425;-67
2022/11/07 13:17:06;;;;;;;1.95;1.20;;;;;;;20.41;49.37;99131.22;4908774;29;20045;-66
2022/11/07 13:19:56;;;;;;;3.53;1.45;;;;;;;20.86;48.12;99129.19;4900492;29;20056;-67
2022/11/07 13:22:41;;;;;;;4.07;1.73;;;;;;;21.08;47.54;99121.59;4900199;29;20044;-67